Latest Weather Observations for Oakey

IDQ60801

Issued at 10:32 pm EST Tuesday 25 April 2017 (issued every 30 minutes, with the page automatically refreshed every 10 minutes)

About weather observations | Map of weather stations | Latest weather observations for QLD | Other Formats
Station Details ID: 041359 Name: OAKEY AERO Lat: -27.40 Lon: 151.74 Height: 405.69 m
Data from the previous 72 hours. | See also: Recent months at Oakey
Date/Time
EST
Temp
°C
App
Temp
°C
Dew
Point
°C
Rel
Hum
%
Delta-T
°C
Wind Press
QNH
hPa
Press
MSL
hPa
Rain since
9am
mm
Dir  Spd
km/h
Gust
km/h
Spd
kts
Gust
kts
25/10:30pm 14.9 13.8 11.9 82 1.7 E 9 13 5 7 1015.8 1014.4 0.0
25/10:00pm 15.5 14.0 11.9 79 2.0 E 11 15 6 8 1016.1 1014.7 0.0
25/09:30pm 16.3 14.6 12.5 78 2.1 ENE 13 15 7 8 1016.3 1014.9 0.0
25/09:00pm 16.2 14.9 12.4 78 2.1 ENE 11 13 6 7 1016.4 1015.0 0.0
25/08:30pm 16.4 14.6 12.2 76 2.3 ENE 13 13 7 7 1016.3 1014.9 0.0
25/08:00pm 17.6 16.2 12.3 71 3.0 ENE 11 13 6 7 1016.5 1015.1 0.0
25/07:30pm 17.8 16.0 12.0 69 3.3 NE 13 15 7 8 1016.1 1014.7 0.0
25/07:00pm 19.2 17.1 12.5 65 3.8 NE 15 17 8 9 1015.6 1014.2 0.0
25/06:30pm 19.3 17.5 12.1 63 4.1 NE 13 13 7 7 1015.6 1014.2 0.0
25/06:00pm 21.2 19.1 12.3 57 5.1 NE 15 19 8 10 1015.2 1013.9 0.0
25/05:30pm 21.9 19.6 11.9 53 5.7 NE 15 17 8 9 1015.1 1013.8 0.0
25/05:00pm 23.2 21.0 10.9 46 7.0 NE 13 19 7 10 1015.0 1013.7 0.0
25/04:30pm 25.0 22.8 10.8 41 8.1 NNE 13 19 7 10 1015.1 1013.8 0.0
25/04:00pm 25.0 24.1 10.5 40 8.2 N 6 9 3 5 1015.2 1013.9 0.0
25/03:30pm 26.1 24.0 9.9 36 9.1 NW 11 17 6 9 1015.2 1013.9 0.0
25/03:00pm 26.1 23.2 8.1 32 9.8 NNW 13 19 7 10 1015.2 1013.9 0.0
25/02:30pm 26.1 24.3 10.7 38 8.8 N 11 17 6 9 1015.4 1014.1 0.0
25/02:00pm 25.9 25.3 11.6 40 8.3 NNW 6 11 3 6 1015.7 1014.3 0.0
25/01:30pm 25.8 24.8 10.4 38 8.7 NE 6 15 3 8 1016.2 1014.8 0.0
25/01:00pm 25.4 23.5 10.4 39 8.5 NNE 11 17 6 9 1016.7 1015.3 0.0
25/12:30pm 24.8 23.0 10.7 41 8.0 E 11 19 6 10 1017.4 1016.1 0.0
25/12:00pm 24.4 22.6 11.0 43 7.6 NE 11 20 6 11 1018.2 1016.8 0.0
25/11:30am 24.1 23.0 12.1 47 7.0 ENE 9 20 5 11 1018.7 1017.3 0.0
25/11:00am 23.5 21.8 12.5 50 6.4 ENE 13 19 7 10 1019.2 1017.9 0.0
25/10:30am 22.3 20.5 12.0 52 5.9 NE 13 20 7 11 1019.6 1018.3 0.0
25/10:00am 21.6 19.1 12.2 55 5.4 NE 17 22 9 12 1020.1 1018.8 0.0
25/09:30am 21.4 18.6 13.3 60 4.7 NE 20 26 11 14 1020.1 1018.8 0.0
25/09:00am 20.3 18.8 14.2 68 3.6 NE 15 19 8 10 1020.2 1018.9 0.0
25/08:30am 18.7 17.8 14.8 78 2.3 ENE 13 19 7 10 1020.3 1019.0 0.0
25/08:00am 16.9 15.9 14.5 86 1.4 ENE 13 17 7 9 1020.3 1019.0 0.0
25/07:30am 15.9 14.8 14.4 91 0.9 E 13 17 7 9 1020.0 1018.7 0.0
25/07:00am 14.3 13.8 13.8 97 0.3 ESE 9 13 5 7 1019.7 1018.4 0.0
25/06:30am 12.5 11.8 12.0 97 0.3 ESE 7 7 4 4 1019.8 1018.5 0.0
25/06:00am 12.2 10.2 11.4 95 0.4 ESE 13 15 7 8 1019.4 1018.1 0.0
25/05:30am 12.8 11.3 12.0 95 0.4 E 11 13 6 7 1019.2 1017.9 0.0
25/05:00am 13.2 11.8 12.1 93 0.6 E 11 13 6 7 1019.0 1017.6 0.0
25/04:30am 13.6 12.4 12.7 94 0.5 ENE 11 15 6 8 1018.9 1017.5 0.0
25/04:00am 14.1 12.7 13.3 95 0.5 ENE 13 15 7 8 1018.8 1017.4 0.0
25/03:30am 14.1 12.4 13.5 96 0.3 ENE 15 19 8 10 1018.8 1017.4 0.0
25/03:00am 14.3 11.8 13.5 95 0.5 ENE 19 22 10 12 1019.0 1017.6 0.0
25/02:30am 14.4 12.2 13.4 94 0.6 ENE 17 20 9 11 1019.4 1018.1 0.0
25/02:00am 13.9 12.0 13.1 95 0.4 ENE 15 17 8 9 1019.4 1018.1 0.0
25/01:30am 13.3 12.0 12.5 95 0.4 E 11 15 6 8 1019.6 1018.3 0.0
25/01:00am 13.9 13.1 12.8 93 0.6 ENE 9 13 5 7 1019.9 1018.6 0.0
25/12:30am 14.1 12.7 13.5 96 0.3 ENE 13 17 7 9 1020.2 1018.9 0.0
25/12:00am 12.6 10.8 10.8 89 1.0 ENE 11 13 6 7 1020.4 1019.1 0.0
 
Date/Time
EST
Temp
°C
App
Temp
°C
Dew
Point
°C
Rel
Hum
%
Delta-T
°C
Wind Press
QNH
hPa
Press
MSL
hPa
Rain since
9am
mm
Dir  Spd
km/h
Gust
km/h
Spd
kts
Gust
kts
24/11:30pm 13.3 12.7 11.7 90 0.9 NE 6 7 3 4 1020.8 1019.4 0.0
24/11:00pm 12.5 11.0 10.6 88 1.0 ENE 9 11 5 6 1021.3 1020.0 0.0
24/10:30pm 13.4 11.6 10.9 85 1.3 E 11 13 6 7 1021.4 1020.1 0.0
24/10:00pm 15.0 15.6 11.8 81 1.8 CALM 0 6 0 3 1021.4 1020.1 0.0
24/09:30pm 14.8 13.9 11.2 79 2.0 ESE 7 9 4 5 1021.4 1020.1 0.0
24/09:00pm 14.0 12.1 10.6 80 1.8 ESE 11 13 6 7 1021.2 1019.9 0.0
24/08:30pm 14.7 12.9 10.7 77 2.2 ESE 11 15 6 8 1021.1 1019.7 0.0
24/08:00pm 14.6 12.7 10.4 76 2.2 E 11 13 6 7 1020.9 1019.5 0.0
24/07:30pm 15.5 13.3 10.9 74 2.5 ENE 13 15 7 8 1020.4 1019.1 0.0
24/07:00pm 15.7 13.5 10.7 72 2.7 E 13 15 7 8 1020.3 1019.0 0.0
24/06:30pm 17.0 14.7 10.4 65 3.6 ENE 13 15 7 8 1020.0 1018.7 0.0
24/06:00pm 18.3 16.1 10.7 61 4.2 E 13 15 7 8 1019.9 1018.6 0.0
24/05:30pm 20.5 17.9 10.6 53 5.5 E 15 17 8 9 1019.6 1018.3 0.0
24/05:00pm 22.3 19.6 10.5 47 6.6 ENE 15 20 8 11 1019.4 1018.1 0.0
24/04:30pm 23.2 20.6 10.6 45 7.1 E 15 19 8 10 1019.0 1017.6 0.0
24/04:00pm 23.5 20.3 9.9 42 7.6 E 17 24 9 13 1018.9 1017.5 0.0
24/03:30pm 23.7 20.4 9.7 41 7.8 E 17 24 9 13 1018.9 1017.5 0.0
24/03:00pm 24.4 21.3 10.3 41 7.9 ESE 17 24 9 13 1019.0 1017.6 0.0
24/02:30pm 24.1 21.2 9.7 40 8.0 ESE 15 30 8 16 1019.1 1017.8 0.0
24/02:00pm 24.9 23.5 10.8 41 8.0 E 9 20 5 11 1019.3 1018.0 0.0
24/01:30pm 23.9 21.9 10.2 42 7.7 ESE 11 19 6 10 1019.5 1018.2 0.0
24/01:00pm 24.2 22.7 10.5 42 7.7 ENE 9 15 5 8 1020.1 1018.8 0.0
24/12:30pm 23.9 22.5 10.9 44 7.4 E 9 17 5 9 1020.3 1019.0 0.0
24/12:00pm 23.5 22.4 10.6 44 7.2 ENE 7 15 4 8 1020.9 1019.5 0.0
24/11:30am 22.6 20.7 10.4 46 6.8 NE 11 19 6 10 1021.4 1020.1 0.0
24/11:00am 22.6 21.1 12.0 51 6.1 ENE 11 19 6 10 1021.9 1020.6 0.0
24/10:30am 22.3 21.3 13.4 57 5.2 ENE 11 20 6 11 1022.2 1020.9 0.0
24/10:00am 20.9 20.2 13.1 61 4.5 E 9 17 5 9 1022.5 1021.2 0.0
24/09:30am 19.6 18.4 12.8 65 3.9 ESE 11 19 6 10 1022.9 1021.6 0.0
24/09:00am 19.5 18.5 14.5 73 2.9 E 13 19 7 10 1023.0 1021.7 0.0
24/08:30am 18.3 18.1 14.6 79 2.2 E 9 11 5 6 1022.9 1021.6 0.0
24/08:00am 16.8 17.1 14.6 87 1.3 NE 6 7 3 4 1022.7 1021.4 0.0
24/07:30am 15.0 14.8 14.7 98 0.2 NE 9 9 5 5 1022.3 1021.0 0.0
24/07:00am 12.5 12.0 11.9 96 0.3 ENE 6 7 3 4 1022.1 1020.8 0.0
24/06:30am 12.5 11.8 12.0 97 0.3 ENE 7 9 4 5 1021.8 1020.5 0.0
24/06:16am 12.6 12.0 12.3 98 0.2 ENE 7 9 4 5 1021.8 1020.5 0.0
24/06:01am 12.5 12.0 12.0 97 0.3 E 6 7 3 4 1021.6 1020.3 0.0
24/06:00am 12.6 11.9 12.1 97 0.3 E 7 7 4 4 1021.6 1020.3 0.0
24/05:42am 12.4 11.7 11.9 97 0.3 E 7 9 4 5 1021.3 1020.0 0.0
24/05:30am 12.3 11.2 11.8 97 0.3 SE 9 11 5 6 1021.2 1019.9 0.0
24/05:07am 12.4 11.3 11.8 96 0.3 SE 9 11 5 6 1021.0 1019.6 0.0
24/05:00am 12.4 11.3 11.8 96 0.3 SE 9 11 5 6 1020.9 1019.5 0.0
24/04:30am 13.0 12.0 12.2 95 0.4 NE 9 13 5 7 1020.9 1019.5 0.0
24/04:00am 13.5 13.1 12.9 96 0.3 ENE 7 9 4 5 1020.9 1019.5 0.0
24/03:30am 13.3 12.3 12.4 94 0.5 SE 9 11 5 6 1020.9 1019.5 0.0
24/03:00am 14.0 13.6 12.9 93 0.6 E 7 9 4 5 1021.1 1019.7 0.0
24/02:30am 14.8 13.9 13.8 94 0.6 ENE 11 15 6 8 1021.3 1020.0 0.0
24/02:00am 14.6 12.9 13.6 94 0.6 NE 15 17 8 9 1021.6 1020.3 0.0
24/01:30am 14.7 13.4 13.6 93 0.6 ENE 13 15 7 8 1021.7 1020.4 0.0
24/01:00am 14.8 14.1 13.3 91 0.8 ENE 9 11 5 6 1021.9 1020.6 0.0
24/12:30am 15.1 14.1 13.3 89 1.0 ENE 11 15 6 8 1021.9 1020.6 0.0
24/12:00am 15.3 14.3 13.3 88 1.1 NE 11 13 6 7 1022.4 1021.1 0.0
 
Date/Time
EST
Temp
°C
App
Temp
°C
Dew
Point
°C
Rel
Hum
%
Delta-T
°C
Wind Press
QNH
hPa
Press
MSL
hPa
Rain since
9am
mm
Dir  Spd
km/h
Gust
km/h
Spd
kts
Gust
kts
23/11:30pm 15.4 14.7 13.1 86 1.3 E 9 15 5 8 1022.6 1021.3 0.0
23/11:00pm 15.5 13.6 13.0 85 1.4 ENE 15 17 8 9 1022.8 1021.5 0.0
23/10:30pm 15.6 14.3 12.5 82 1.7 ENE 11 15 6 8 1023.1 1021.8 0.0
23/10:00pm 15.5 14.8 12.1 80 1.9 NE 7 11 4 6 1022.9 1021.6 0.0
23/09:30pm 14.5 13.6 11.3 81 1.7 E 7 9 4 5 1022.9 1021.6 0.0
23/09:00pm 14.0 12.5 10.6 80 1.8 E 9 11 5 6 1022.8 1021.5 0.0
23/08:30pm 15.4 14.5 11.2 76 2.3 E 7 9 4 5 1022.7 1021.4 0.0
23/08:00pm 15.2 15.5 10.8 75 2.4 CALM 0 0 0 0 1022.3 1021.0 0.0
23/07:30pm 16.0 16.4 11.2 73 2.6 CALM 0 0 0 0 1022.1 1020.8 0.0
23/07:00pm 15.8 14.4 10.8 72 2.7 E 9 11 5 6 1021.8 1020.5 0.0
23/06:30pm 16.6 14.9 11.1 70 3.0 E 11 11 6 6 1021.6 1020.3 0.0
23/06:00pm 18.2 16.1 11.3 64 3.8 E 13 15 7 8 1021.3 1020.0 0.0
23/05:30pm 19.9 17.8 11.1 57 4.9 E 13 17 7 9 1021.1 1019.7 0.0
23/05:00pm 21.4 18.5 11.1 52 5.8 E 17 19 9 10 1021.0 1019.6 0.0
23/04:30pm 22.6 19.7 11.0 48 6.6 ESE 17 22 9 12 1020.8 1019.4 0.0
23/04:00pm 23.1 20.6 10.9 46 6.9 SE 15 20 8 11 1020.5 1019.2 0.0
23/03:30pm 23.1 20.3 11.5 48 6.6 SE 17 26 9 14 1020.3 1019.0 0.0
23/03:00pm 24.3 22.8 11.9 45 7.2 E 11 20 6 11 1020.3 1019.0 0.0
23/02:30pm 23.8 21.3 11.2 45 7.2 SSE 15 20 8 11 1020.3 1019.0 0.0
23/02:00pm 24.2 22.6 11.5 45 7.3 E 11 19 6 10 1020.3 1019.0 0.0
23/01:30pm 23.7 22.1 11.7 47 6.9 ESE 11 20 6 11 1020.8 1019.4 0.0
23/01:00pm 24.0 23.0 11.0 44 7.4 NNE 7 15 4 8 1021.2 1019.9 0.0
23/12:30pm 23.6 23.4 12.9 51 6.3 S 6 11 3 6 1021.6 1020.3 0.0
23/12:00pm 22.2 21.5 11.9 52 5.9 SE 7 17 4 9 1022.0 1020.7 0.0
23/11:30am 21.9 20.4 11.9 53 5.7 E 11 17 6 9 1022.5 1021.2 0.0
23/11:00am 22.1 20.5 12.9 56 5.3 ESE 13 20 7 11 1023.2 1021.9 0.0
23/10:30am 20.5 18.4 11.2 55 5.2 ENE 13 19 7 10 1023.7 1022.4 0.0
23/10:00am 19.8 17.5 11.8 60 4.5 E 15 19 8 10 1024.0 1022.7 0.0
23/09:30am 19.5 16.8 11.8 61 4.3 E 17 24 9 13 1023.8 1022.5 0.0
23/09:00am 19.2 15.9 11.7 62 4.2 E 20 28 11 15 1023.8 1022.5 0.0
23/08:30am 18.7 15.6 11.5 63 4.0 ESE 19 26 10 14 1023.7 1022.4 0.0
23/08:00am 16.4 15.6 11.1 71 2.9 SE 6 9 3 5 1023.9 1022.6 0.0
23/07:30am 14.1 13.2 11.4 84 1.5 SSE 7 13 4 7 1023.9 1022.6 0.0
23/07:00am 11.8 10.7 10.7 93 0.6 S 7 9 4 5 1023.6 1022.3 0.0
23/06:30am 10.3 8.9 9.4 94 0.5 ESE 7 9 4 5 1023.4 1022.1 0.0
23/06:00am 10.2 8.6 8.1 87 1.0 ESE 6 7 3 4 1023.0 1021.7 0.0
23/05:30am 11.4 9.6 9.5 88 1.0 SE 9 9 5 5 1022.6 1021.3 0.0
23/05:00am 11.5 10.1 9.6 88 1.0 ESE 7 9 4 5 1022.3 1021.0 0.0
23/04:30am 12.1 10.8 10.0 87 1.1 ENE 7 9 4 5 1022.3 1021.0 0.0
23/04:00am 12.9 11.9 10.4 85 1.3 E 6 9 3 5 1022.2 1020.9 0.0
23/03:30am 13.4 12.2 10.4 82 1.6 SE 7 9 4 5 1022.2 1020.9 0.0
23/03:00am 13.7 12.8 10.5 81 1.7 ESE 6 9 3 5 1022.2 1020.9 0.0
23/02:30am 13.6 13.3 10.0 79 1.9 ESE 2 6 1 3 1022.3 1021.0 0.0
23/02:00am 14.8 12.9 10.6 76 2.2 E 11 17 6 9 1022.5 1021.2 0.0
23/01:30am 15.6 13.5 11.0 74 2.5 ESE 13 19 7 10 1022.6 1021.3 0.0
23/01:00am 15.9 13.4 11.1 73 2.6 ESE 15 22 8 12 1022.8 1021.5 0.0
23/12:30am 15.7 13.1 10.7 72 2.7 E 15 20 8 11 1023.2 1021.9 0.0
23/12:00am 15.6 13.7 10.4 71 2.8 E 11 15 6 8 1023.7 1022.4 0.0
 
Date/Time
EST
Temp
°C
App
Temp
°C
Dew
Point
°C
Rel
Hum
%
Delta-T
°C
Wind Press
QNH
hPa
Press
MSL
hPa
Rain since
9am
mm
Dir  Spd
km/h
Gust
km/h
Spd
kts
Gust
kts
22/11:30pm 15.8 12.7 10.3 70 3.0 ENE 17 24 9 13 1023.8 1022.5 0.0
22/11:00pm 16.0 13.4 10.7 71 2.9 ENE 15 20 8 11 1024.1 1022.8 0.0

Other Formats:

Comma delimited format used in spreadsheet applications
http://www.bom.gov.au/fwo/IDQ60801/IDQ60801.94552.axf

JavaScript Object Notation format (JSON) in row-major order
http://www.bom.gov.au/fwo/IDQ60801/IDQ60801.94552.json